Time;durP1;ratioP1;P1;durP2;ratioP2;P2;SDS_P1;SDS_P2;PMS_P1;PMS_P2;Temp;Humidity;BMP_temperature;BMP_pressure;BME280_temperature;BME280_humidity;BME280_pressure;Samples;Min_cycle;Max_cycle;Signal;HPM_P1;HPM_P2
2022/11/19 00:00:08;;;;;;;;;;;;;;;-143.57;100.00;51376.53;5075215;28;20022;-74
2022/11/19 00:02:35;;;;;;;;;;;;;;;-143.57;100.00;51420.28;5060740;28;19986;-75
2022/11/19 00:05:01;;;;;;;;;;;;;;;-143.57;100.00;51418.28;5075236;28;19981;-76
2022/11/19 00:07:28;;;;;;;;;;;;;;;-143.57;100.00;51396.41;5078518;28;20449;-75
2022/11/19 00:09:56;;;;;;;;;;;;;;;-143.57;100.00;51422.25;5078074;28;19936;-75
2022/11/19 00:15:08;;;;;;;;;;;;;;;-143.57;100.00;51440.16;5077315;28;20644;-75
2022/11/19 00:17:35;;;;;;;;;;;;;;;-143.57;100.00;51414.31;5061828;28;19932;-75
2022/11/19 00:20:02;;;;;;;;;;;;;;;-143.57;100.00;51446.13;5078469;28;20023;-75
2022/11/19 00:22:29;;;;;;;;;;;;;;;-143.57;100.00;51424.25;5078587;28;20597;-75
2022/11/19 00:24:55;;;;;;;;;;;;;;;-143.57;100.00;51394.44;5083410;28;19935;-75
2022/11/19 00:27:22;;;;;;;;;;;;;;;-143.57;100.00;51390.47;5078453;28;20481;-74
2022/11/19 00:29:49;;;;;;;;;;;;;;;-143.57;100.00;51390.47;5081572;28;20367;-75
2022/11/19 00:32:15;;;;;;;;;;;;;;;-143.57;100.00;51414.31;5080694;28;19928;-75
2022/11/19 00:34:42;;;;;;;;;;;;;;;-143.57;100.00;51390.47;5080858;28;19927;-75
2022/11/19 00:37:08;;;;;;;;;;;;;;;-143.57;100.00;51358.66;5082081;28;19928;-75
2022/11/19 00:39:35;;;;;;;;;;;;;;;-143.57;100.00;51414.31;5082715;28;19931;-75
2022/11/19 00:42:02;;;;;;;;;;;;;;;-143.57;100.00;51406.34;5080755;28;20500;-75
2022/11/19 00:44:29;;;;;;;;;;;;;;;-143.57;100.00;51402.38;5085028;28;19971;-75
2022/11/19 00:47:02;;;;;;;;;;;;;;;-143.57;100.00;51378.53;5083070;28;20017;-75
2022/11/19 00:49:29;;;;;;;;;;;;;;;-143.57;100.00;51376.53;5082596;28;20393;-75
2022/11/19 00:51:55;;;;;;;;;;;;;;;-143.57;100.00;51434.19;5086330;28;20321;-75
2022/11/19 00:54:22;;;;;;;;;;;;;;;-143.57;100.00;51418.28;5084076;28;19939;-75
2022/11/19 00:56:49;;;;;;;;;;;;;;;-143.57;100.00;51438.16;5080833;28;19928;-74
2022/11/19 00:59:15;;;;;;;;;;;;;;;-143.57;100.00;51410.34;5083496;28;19924;-73
2022/11/19 01:01:43;;;;;;;;;;;;;;;-143.57;100.00;51432.19;5082620;28;20926;-74
2022/11/19 01:04:10;;;;;;;;;;;;;;;-143.57;100.00;51422.25;5084054;28;19934;-74
2022/11/19 01:06:37;;;;;;;;;;;;;;;-143.57;100.00;51424.25;5090065;28;19927;-74
2022/11/19 01:09:03;;;;;;;;;;;;;;;-143.57;100.00;51406.34;5080793;28;19932;-74
2022/11/19 01:11:32;;;;;;;;;;;;;;;-143.57;100.00;51386.47;5079700;28;20397;-75
2022/11/19 01:13:59;;;;;;;;;;;;;;;-143.57;100.00;51444.13;5080797;28;19956;-75
2022/11/19 01:16:31;;;;;;;;;;;;;;;-143.57;100.00;51412.31;5082263;28;20029;-75
2022/11/19 01:18:57;;;;;;;;;;;;;;;-143.57;100.00;51448.09;5079170;28;19925;-74
2022/11/19 01:21:27;;;;;;;;;;;;;;;-143.57;100.00;51392.44;5080490;28;19927;-74
2022/11/19 01:23:54;;;;;;;;;;;;;;;-143.57;100.00;51438.16;5083872;28;19993;-75
2022/11/19 01:26:21;;;;;;;;;;;;;;;-143.57;100.00;51410.34;5078076;28;19985;-74
2022/11/19 01:28:49;;;;;;;;;;;;;;;-143.57;100.00;51402.38;5082645;28;20958;-75
2022/11/19 01:31:21;;;;;;;;;;;;;;;-143.57;100.00;51406.34;5082089;28;20463;-75
2022/11/19 01:33:48;;;;;;;;;;;;;;;-143.57;100.00;51402.38;5091953;27;19926;-74
2022/11/19 01:36:25;;;;;;;;;;;;;;;-143.57;100.00;51430.22;5078751;28;20337;-74
2022/11/19 01:38:53;;;;;;;;;;;;;;;-143.57;100.00;51378.53;5082540;28;20018;-75
2022/11/19 01:41:21;;;;;;;;;;;;;;;-143.57;100.00;51426.25;5080076;28;19925;-75
2022/11/19 01:43:49;;;;;;;;;;;;;;;-143.57;100.00;51426.25;5084903;28;20359;-75
2022/11/19 01:46:23;;;;;;;;;;;;;;;-143.57;100.00;51414.31;5081760;28;19981;-74
2022/11/19 01:48:54;;;;;;;;;;;;;;;-143.57;100.00;51406.34;5084764;28;19928;-75
2022/11/19 01:51:20;;;;;;;;;;;;;;;-143.57;100.00;51418.28;5082905;28;19924;-75
2022/11/19 01:53:49;;;;;;;;;;;;;;;-143.57;100.00;51466.00;5080125;28;19935;-75
2022/11/19 02:17:11;;;;;;;;;;;;;;;-143.57;100.00;51374.56;5034989;28;19917;-75
2022/11/19 02:19:37;;;;;;;;;;;;;;;-143.57;100.00;51450.09;5033700;28;19936;-75
2022/11/19 02:22:25;;;;;;;;;;;;;;;-143.57;100.00;51438.16;5041071;28;20415;-75
2022/11/19 02:24:53;;;;;;;;;;;;;;;-143.57;100.00;51408.34;5031388;28;20138;-75
2022/11/19 02:27:25;;;;;;;;;;;;;;;-143.57;100.00;51402.38;5036561;28;20387;-75
2022/11/19 02:30:01;;;;;;;;;;;;;;;-143.57;100.00;51406.34;5033108;28;19932;-75
2022/11/19 02:32:30;;;;;;;;;;;;;;;-143.57;100.00;51422.25;5031747;28;20695;-75
2022/11/19 02:35:00;;;;;;;;;;;;;;;-143.57;100.00;51402.38;5031045;28;20449;-75
2022/11/19 02:37:35;;;;;;;;;;;;;;;-143.57;100.00;51382.50;5035280;28;20303;-75
2022/11/19 02:40:11;;;;;;;;;;;;;;;-143.57;100.00;51412.31;5033538;28;20361;-75
2022/11/19 02:42:42;;;;;;;;;;;;;;;-143.57;100.00;51414.31;5030614;28;19995;-75
2022/11/19 02:45:15;;;;;;;;;;;;;;;-143.57;100.00;51418.28;5036191;28;20423;-75
2022/11/19 02:48:05;;;;;;;;;;;;;;;-143.57;100.00;51420.28;5021781;28;19933;-75
2022/11/19 02:50:43;;;;;;;;;;;;;;;-143.57;100.00;51404.38;5030356;28;20014;-74
2022/11/19 02:53:10;;;;;;;;;;;;;;;-143.57;100.00;51442.16;5034395;28;19933;-74
2022/11/19 02:55:38;;;;;;;;;;;;;;;-143.57;100.00;51418.28;5035380;28;19929;-75
2022/11/19 03:06:37;;;;;;;;;;;;;;;-143.57;100.00;51420.28;5032156;28;19929;-75
2022/11/19 03:09:04;;;;;;;;;;;;;;;-143.57;100.00;51454.06;5029386;28;20077;-75
2022/11/19 03:11:31;;;;;;;;;;;;;;;-143.57;100.00;51408.34;5034961;28;20407;-75
2022/11/19 03:17:04;;;;;;;;;;;;;;;-143.57;100.00;51414.31;5022580;28;19969;-75
2022/11/19 03:19:31;;;;;;;;;;;;;;;-143.57;100.00;51418.28;5022118;28;20394;-75
2022/11/19 03:22:07;;;;;;;;;;;;;;;-143.57;100.00;51424.25;5020217;28;19929;-74
2022/11/19 03:25:00;;;;;;;;;;;;;;;-143.57;100.00;51426.25;5017057;28;19934;-75
2022/11/19 03:27:30;;;;;;;;;;;;;;;-143.57;100.00;51414.31;5005094;28;20370;-75
2022/11/19 03:29:59;;;;;;;;;;;;;;;-143.57;100.00;51418.28;5020712;28;19925;-75
2022/11/19 03:32:33;;;;;;;;;;;;;;;-143.57;100.00;51394.44;4984717;28;20374;-75
2022/11/19 03:35:02;;;;;;;;;;;;;;;-143.57;100.00;51438.16;5019526;28;20030;-75
2022/11/19 03:37:30;;;;;;;;;;;;;;;-143.57;100.00;51466.00;5019322;28;19934;-75
2022/11/19 03:39:59;;;;;;;;;;;;;;;-143.57;100.00;51404.38;5018448;28;19937;-75
2022/11/19 03:42:26;;;;;;;;;;;;;;;-143.57;100.00;51414.31;5016931;28;20016;-75
2022/11/19 03:45:01;;;;;;;;;;;;;;;-143.57;100.00;51410.34;5020295;28;19931;-75
2022/11/19 03:47:34;;;;;;;;;;;;;;;-143.57;100.00;51446.13;5018661;28;20378;-75
2022/11/19 03:50:08;;;;;;;;;;;;;;;-143.57;100.00;51430.22;5017024;28;20012;-75
2022/11/19 03:52:35;;;;;;;;;;;;;;;-143.57;100.00;51406.34;5023500;28;20317;-75
2022/11/19 03:55:02;;;;;;;;;;;;;;;-143.57;100.00;51402.38;5018956;28;19933;-75
2022/11/19 03:57:28;;;;;;;;;;;;;;;-143.57;100.00;51426.25;5018314;28;20531;-75
2022/11/19 03:59:55;;;;;;;;;;;;;;;-143.57;100.00;51422.25;5015798;28;19929;-75
2022/11/19 04:02:22;;;;;;;;;;;;;;;-143.57;100.00;51446.13;5023207;28;19933;-76
2022/11/19 04:04:48;;;;;;;;;;;;;;;-143.57;100.00;51426.25;5019991;28;20339;-75
2022/11/19 04:07:16;;;;;;;;;;;;;;;-143.57;100.00;51406.34;5015635;28;20423;-75
2022/11/19 04:09:44;;;;;;;;;;;;;;;-143.57;100.00;51410.34;5013383;28;19960;-75
2022/11/19 04:12:20;;;;;;;;;;;;;;;-143.57;100.00;51434.19;5020461;28;20331;-74
2022/11/19 04:14:48;;;;;;;;;;;;;;;-143.57;100.00;51426.25;5017860;28;19929;-75
2022/11/19 04:17:15;;;;;;;;;;;;;;;-143.57;100.00;51434.19;5017254;28;19975;-75
2022/11/19 04:19:42;;;;;;;;;;;;;;;-143.57;100.00;51426.25;5018584;28;20625;-75
2022/11/19 04:22:10;;;;;;;;;;;;;;;-143.57;100.00;51402.38;5021909;28;19940;-74
2022/11/19 04:24:37;;;;;;;;;;;;;;;-143.57;100.00;51426.25;5018762;28;19937;-74
2022/11/19 04:27:03;;;;;;;;;;;;;;;-143.57;100.00;51430.22;5016110;28;20210;-74
2022/11/19 04:29:30;;;;;;;;;;;;;;;-143.57;100.00;51452.09;5018603;28;20205;-74
2022/11/19 04:31:57;;;;;;;;;;;;;;;-143.57;100.00;51430.22;5019226;28;19933;-74
2022/11/19 04:34:23;;;;;;;;;;;;;;;-143.57;100.00;51398.41;5017029;28;20376;-74
2022/11/19 04:36:50;;;;;;;;;;;;;;;-143.57;100.00;51422.25;5015558;28;19958;-75
2022/11/19 04:39:16;;;;;;;;;;;;;;;-143.57;100.00;51390.47;5022362;28;20224;-75
2022/11/19 04:41:44;;;;;;;;;;;;;;;-143.57;100.00;51422.25;5019047;28;20050;-75
2022/11/19 04:44:11;;;;;;;;;;;;;;;-143.57;100.00;51426.25;5015112;28;19929;-75
2022/11/19 04:46:38;;;;;;;;;;;;;;;-143.57;100.00;51376.53;5029023;28;19937;-74
2022/11/19 04:49:05;;;;;;;;;;;;;;;-143.57;100.00;51434.19;5026855;28;20406;-74
2022/11/19 04:51:32;;;;;;;;;;;;;;;-143.57;100.00;51422.25;5017340;28;19930;-74
2022/11/19 04:53:58;;;;;;;;;;;;;;;-143.57;100.00;51430.22;5017459;28;20419;-74
2022/11/19 04:56:25;;;;;;;;;;;;;;;-143.57;100.00;51432.19;5008656;28;20004;-74
2022/11/19 04:58:52;;;;;;;;;;;;;;;-143.57;100.00;51434.19;5019905;28;20002;-75
2022/11/19 05:01:19;;;;;;;;;;;;;;;-143.57;100.00;51400.41;5015544;28;19991;-74
2022/11/19 05:03:47;;;;;;;;;;;;;;;-143.57;100.00;51454.06;5026055;28;19925;-74
2022/11/19 05:06:13;;;;;;;;;;;;;;;-143.57;100.00;51442.16;5015230;28;19959;-74
2022/11/19 05:08:40;;;;;;;;;;;;;;;-143.57;100.00;51450.09;5013352;28;19973;-74
2022/11/19 05:11:07;;;;;;;;;;;;;;;-143.57;100.00;51438.16;5011407;28;19983;-74
2022/11/19 05:13:33;;;;;;;;;;;;;;;-143.57;100.00;51434.19;5020953;28;19925;-75
2022/11/19 05:16:00;;;;;;;;;;;;;;;-143.57;100.00;51430.22;5018879;28;19936;-75
2022/11/19 05:18:27;;;;;;;;;;;;;;;-143.57;100.00;51414.31;5017453;28;19929;-74
2022/11/19 05:20:53;;;;;;;;;;;;;;;-143.57;100.00;51430.22;5014429;28;20309;-75
2022/11/19 05:23:20;;;;;;;;;;;;;;;-143.57;100.00;51414.31;5018302;28;19976;-75
2022/11/19 05:25:47;;;;;;;;;;;;;;;-143.57;100.00;51438.16;5018782;28;19932;-75
2022/11/19 05:28:13;;;;;;;;;;;;;;;-143.57;100.00;51430.22;5014767;28;20458;-75
2022/11/19 05:30:41;;;;;;;;;;;;;;;-143.57;100.00;51426.25;5016328;28;19936;-74
2022/11/19 05:33:08;;;;;;;;;;;;;;;-143.57;100.00;51432.19;5020012;28;20372;-75
2022/11/19 05:35:35;;;;;;;;;;;;;;;-143.57;100.00;51426.25;5016862;28;19929;-74
2022/11/19 05:38:02;;;;;;;;;;;;;;;-143.57;100.00;51436.19;5015503;28;19960;-74
2022/11/19 05:40:28;;;;;;;;;;;;;;;-143.57;100.00;51402.38;5016226;28;20063;-74
2022/11/19 05:42:55;;;;;;;;;;;;;;;-143.57;100.00;51398.41;5017592;28;20413;-73
2022/11/19 05:45:22;;;;;;;;;;;;;;;-143.57;100.00;51422.25;5018213;28;19952;-73
2022/11/19 05:47:52;;;;;;;;;;;;;;;-143.57;100.00;51414.31;5015977;28;20399;-73
2022/11/19 05:50:19;;;;;;;;;;;;;;;-143.57;100.00;51450.09;5013827;28;19955;-74
2022/11/19 05:52:48;;;;;;;;;;;;;;;-143.57;100.00;51444.13;5017863;28;20465;-74
2022/11/19 05:55:15;;;;;;;;;;;;;;;-143.57;100.00;51402.38;5020641;28;19956;-74
2022/11/19 05:57:42;;;;;;;;;;;;;;;-143.57;100.00;51430.22;5018695;28;20473;-75
2022/11/19 06:00:09;;;;;;;;;;;;;;;-143.57;100.00;51456.06;5016917;28;20129;-75
2022/11/19 06:02:39;;;;;;;;;;;;;;;-143.57;100.00;51416.28;5019438;28;19952;-74
2022/11/19 06:05:06;;;;;;;;;;;;;;;-143.57;100.00;51434.19;5017205;28;19980;-74
2022/11/19 06:07:32;;;;;;;;;;;;;;;-143.57;100.00;51430.22;5016802;28;19929;-74
2022/11/19 06:09:59;;;;;;;;;;;;;;;-143.57;100.00;51426.25;5011386;28;19929;-76
2022/11/19 06:12:27;;;;;;;;;;;;;;;-143.57;100.00;51430.22;5019617;28;20417;-77
2022/11/19 06:14:54;;;;;;;;;;;;;;;-143.57;100.00;51432.19;5022122;28;20770;-76
2022/11/19 06:17:21;;;;;;;;;;;;;;;-143.57;100.00;51489.84;5015195;28;19937;-78
2022/11/19 06:19:47;;;;;;;;;;;;;;;-143.57;100.00;51420.28;5014498;28;19979;-75
2022/11/19 06:22:14;;;;;;;;;;;;;;;-143.57;100.00;51442.16;5017110;28;19928;-73
2022/11/19 06:24:41;;;;;;;;;;;;;;;-143.57;100.00;51388.47;5018470;28;19933;-73
2022/11/19 06:27:07;;;;;;;;;;;;;;;-143.57;100.00;51462.03;5014790;28;20387;-73
2022/11/19 06:29:34;;;;;;;;;;;;;;;-143.57;100.00;51438.16;5013355;28;20381;-74
2022/11/19 06:32:00;;;;;;;;;;;;;;;-143.57;100.00;51430.22;5017139;28;19929;-73
2022/11/19 06:34:27;;;;;;;;;;;;;;;-143.57;100.00;51442.16;5017419;28;19928;-73
2022/11/19 06:36:54;;;;;;;;;;;;;;;-143.57;100.00;51428.22;5014662;28;20455;-74
2022/11/19 06:39:20;;;;;;;;;;;;;;;-143.57;100.00;51410.34;5012422;28;19929;-74
2022/11/19 06:41:47;;;;;;;;;;;;;;;-143.57;100.00;51462.03;5014048;28;19967;-74
2022/11/19 06:44:14;;;;;;;;;;;;;;;-143.57;100.00;51402.38;5017738;28;19936;-74
2022/11/19 06:46:41;;;;;;;;;;;;;;;-143.57;100.00;51402.38;5016137;28;20470;-77
2022/11/19 06:49:08;;;;;;;;;;;;;;;-143.57;100.00;51398.41;5001567;28;19929;-75
2022/11/19 06:51:39;;;;;;;;;;;;;;;-143.57;100.00;51418.28;5009146;28;19930;-75
2022/11/19 06:54:06;;;;;;;;;;;;;;;-143.57;100.00;51430.22;5020450;28;19926;-76
2022/11/19 06:56:33;;;;;;;;;;;;;;;-143.57;100.00;51450.09;5019843;28;19991;-75
2022/11/19 06:58:59;;;;;;;;;;;;;;;-143.57;100.00;51438.16;5019505;28;20326;-74
2022/11/19 07:01:26;;;;;;;;;;;;;;;-143.57;100.00;51394.44;5018942;28;19933;-71
2022/11/19 07:03:53;;;;;;;;;;;;;;;-143.57;100.00;51434.19;5019227;28;19929;-72
2022/11/19 07:23:16;;;;;;;;;;;;;;;-143.57;100.00;51434.19;5070365;28;19917;-73
2022/11/19 07:25:42;;;;;;;;;;;;;;;-143.57;100.00;51416.28;5073474;28;19928;-73
2022/11/19 07:28:09;;;;;;;;;;;;;;;-143.57;100.00;51430.22;5073505;28;20035;-71
2022/11/19 07:30:36;;;;;;;;;;;;;;;-143.57;100.00;51414.31;5073156;28;19924;-72
2022/11/19 07:33:02;;;;;;;;;;;;;;;-143.57;100.00;51442.16;5070213;28;20382;-73
2022/11/19 07:35:29;;;;;;;;;;;;;;;-143.57;100.00;51416.28;5069875;28;20724;-72
2022/11/19 07:37:56;;;;;;;;;;;;;;;-143.57;100.00;51458.03;5072998;28;19994;-72
2022/11/19 07:40:22;;;;;;;;;;;;;;;-143.57;100.00;51434.19;5072098;28;19989;-72
2022/11/19 07:42:51;;;;;;;;;;;;;;;-143.57;100.00;51432.19;5070531;28;20432;-71
2022/11/19 07:45:20;;;;;;;;;;;;;;;-143.57;100.00;51434.19;5070536;28;20071;-71
2022/11/19 07:47:47;;;;;;;;;;;;;;;-143.57;100.00;51426.25;5073539;28;20697;-70
2022/11/19 07:50:13;;;;;;;;;;;;;;;-143.57;100.00;51454.06;5070419;28;19924;-72
2022/11/19 07:52:40;;;;;;;;;;;;;;;-143.57;100.00;51434.19;5070054;28;19932;-72
2022/11/19 07:55:07;;;;;;;;;;;;;;;-143.57;100.00;51458.03;5068186;28;19981;-71
2022/11/19 07:57:34;;;;;;;;;;;;;;;-143.57;100.00;51430.22;5073567;28;19982;-72
2022/11/19 08:00:01;;;;;;;;;;;;;;;-143.57;100.00;51469.97;5068905;28;19932;-73
2022/11/19 08:02:37;;;;;;;;;;;;;;;-143.57;100.00;51438.16;5069861;28;19932;-72
2022/11/19 08:05:04;;;;;;;;;;;;;;;-143.57;100.00;51416.28;5071713;28;19932;-72
2022/11/19 08:07:31;;;;;;;;;;;;;;;-143.57;100.00;51430.22;5073345;28;19936;-75
2022/11/19 08:09:58;;;;;;;;;;;;;;;-143.57;100.00;51446.13;5070711;28;20375;-72
2022/11/19 08:12:27;;;;;;;;;;;;;;;-143.57;100.00;51432.19;5073658;28;19931;-72
2022/11/19 08:14:55;;;;;;;;;;;;;;;-143.57;100.00;51438.16;5072163;28;19934;-71
2022/11/19 08:20:08;;;;;;;;;;;;;;;-143.57;100.00;51436.19;5069044;28;19967;-70
2022/11/19 08:22:35;;;;;;;;;;;;;;;-143.57;100.00;51440.16;5067591;28;20014;-71
2022/11/19 08:25:02;;;;;;;;;;;;;;;-143.57;100.00;51442.16;5062531;28;19924;-72
2022/11/19 08:27:29;;;;;;;;;;;;;;;-143.57;100.00;51422.25;5056486;28;19928;-71
2022/11/19 08:29:56;;;;;;;;;;;;;;;-143.57;100.00;51448.09;5055008;28;20684;-71
2022/11/19 08:32:22;;;;;;;;;;;;;;;-143.57;100.00;51430.22;5060460;28;19924;-72
2022/11/19 08:34:49;;;;;;;;;;;;;;;-143.57;100.00;51481.91;5058104;28;20658;-73
2022/11/19 08:37:16;;;;;;;;;;;;;;;-143.57;100.00;51450.09;5055189;28;20085;-72
2022/11/19 08:39:42;;;;;;;;;;;;;;;-143.57;100.00;51426.25;5056434;28;20019;-72
2022/11/19 08:44:54;;;;;;;;;;;;;;;-143.57;100.00;51471.97;5056260;28;19933;-75
2022/11/19 08:47:21;;;;;;;;;;;;;;;-143.57;100.00;51422.25;5056114;28;20222;-71
2022/11/19 08:49:47;;;;;;;;;;;;;;;-143.57;100.00;51458.03;5057986;28;19929;-73
2022/11/19 08:52:14;;;;;;;;;;;;;;;-143.57;100.00;51450.09;5057685;28;19990;-76
2022/11/19 08:54:41;;;;;;;;;;;;;;;-143.57;100.00;51410.34;5057604;28;20017;-72
2022/11/19 08:57:09;;;;;;;;;;;;;;;-143.57;100.00;51442.16;5056638;28;19982;-71
2022/11/19 08:59:36;;;;;;;;;;;;;;;-143.57;100.00;51442.16;5058636;28;20605;-72
2022/11/19 09:02:02;;;;;;;;;;;;;;;-143.57;100.00;51430.22;5060811;28;19960;-71
2022/11/19 09:04:29;;;;;;;;;;;;;;;-143.57;100.00;51432.19;5059662;28;19967;-72
2022/11/19 09:06:56;;;;;;;;;;;;;;;-143.57;100.00;51440.16;5055720;28;19936;-71
2022/11/19 09:09:23;;;;;;;;;;;;;;;-143.57;100.00;51410.34;5058420;28;19931;-72
2022/11/19 09:11:49;;;;;;;;;;;;;;;-143.57;100.00;51406.34;5059322;28;19950;-75
2022/11/19 09:14:16;;;;;;;;;;;;;;;-143.57;100.00;51430.22;5053711;28;20919;-72
2022/11/19 09:16:43;;;;;;;;;;;;;;;-143.57;100.00;51458.03;5053038;28;19944;-71
2022/11/19 09:19:12;;;;;;;;;;;;;;;-143.57;100.00;51430.22;5051383;28;20022;-74
2022/11/19 09:21:39;;;;;;;;;;;;;;;-143.57;100.00;51406.34;5056395;28;20543;-74
2022/11/19 09:24:06;;;;;;;;;;;;;;;-143.57;100.00;51392.44;5053257;28;20674;-74
2022/11/19 09:26:33;;;;;;;;;;;;;;;-143.57;100.00;51414.31;5048164;28;19925;-74
2022/11/19 09:28:59;;;;;;;;;;;;;;;-143.57;100.00;51438.16;5053882;28;20471;-74
2022/11/19 09:31:26;;;;;;;;;;;;;;;-143.57;100.00;51396.41;5053722;28;20644;-74
2022/11/19 09:33:53;;;;;;;;;;;;;;;-143.57;100.00;51394.44;5055155;28;19929;-74
2022/11/19 09:36:20;;;;;;;;;;;;;;;-143.57;100.00;51422.25;5051349;28;20620;-74
2022/11/19 09:38:47;;;;;;;;;;;;;;;-143.57;100.00;51446.13;5054121;28;20006;-73
2022/11/19 09:41:37;;;;;;;;;;;;;;;-143.57;100.00;51410.34;5054949;28;20008;-74
2022/11/19 09:44:03;;;;;;;;;;;;;;;-143.57;100.00;51442.16;5057332;28;19993;-73
2022/11/19 09:46:33;;;;;;;;;;;;;;;-143.57;100.00;51422.25;5052573;28;19928;-74
2022/11/19 09:49:02;;;;;;;;;;;;;;;-143.57;100.00;51402.38;5057239;28;19956;-73
2022/11/19 09:51:31;;;;;;;;;;;;;;;-143.57;100.00;51428.22;5056909;28;19938;-74
2022/11/19 09:54:01;;;;;;;;;;;;;;;-143.57;100.00;51426.25;5056999;28;20452;-74
2022/11/19 09:56:38;;;;;;;;;;;;;;;-143.57;100.00;51438.16;5055484;28;19924;-74
2022/11/19 09:59:14;;;;;;;;;;;;;;;-143.57;100.00;51408.34;5057015;28;20545;-74
2022/11/19 10:01:41;;;;;;;;;;;;;;;-143.57;100.00;51468.00;5056520;28;19935;-74
2022/11/19 10:04:09;;;;;;;;;;;;;;;-143.57;100.00;51426.25;5053147;28;19932;-74
2022/11/19 10:06:54;;;;;;;;;;;;;;;-143.57;100.00;51426.25;5054486;28;20393;-74
2022/11/19 10:09:47;;;;;;;;;;;;;;;-143.57;100.00;51416.28;5054953;28;20651;-74
2022/11/19 10:12:20;;;;;;;;;;;;;;;-143.57;100.00;51418.28;5053028;28;19936;-74
2022/11/19 10:14:53;;;;;;;;;;;;;;;-143.57;100.00;51402.38;5053086;28;19967;-74
2022/11/19 10:17:29;;;;;;;;;;;;;;;-143.57;100.00;51450.09;5052472;28;19971;-71
2022/11/19 10:20:12;;;;;;;;;;;;;;;-143.57;100.00;51414.31;5053109;28;19933;-71
2022/11/19 10:22:57;;;;;;;;;;;;;;;-143.57;100.00;51422.25;5055345;28;21250;-71
2022/11/19 10:25:31;;;;;;;;;;;;;;;-143.57;100.00;51430.22;5055401;28;19924;-71
2022/11/19 10:28:04;;;;;;;;;;;;;;;-143.57;100.00;51382.50;5053070;28;19924;-72
2022/11/19 10:30:30;;;;;;;;;;;;;;;-143.57;100.00;51406.34;5054100;28;19959;-72
2022/11/19 10:33:00;;;;;;;;;;;;;;;-143.57;100.00;51390.47;5058395;28;19932;-72
2022/11/19 10:35:30;;;;;;;;;;;;;;;-143.57;100.00;51380.50;5052968;28;19978;-71
2022/11/19 10:38:02;;;;;;;;;;;;;;;-143.57;100.00;51434.19;5056077;28;19933;-71
2022/11/19 10:40:35;;;;;;;;;;;;;;;-143.57;100.00;51410.34;5052266;28;19925;-71
2022/11/19 10:43:14;;;;;;;;;;;;;;;-143.57;100.00;51394.44;5052552;28;20549;-72
2022/11/19 10:45:48;;;;;;;;;;;;;;;-143.57;100.00;51374.56;5056398;28;19947;-72
2022/11/19 10:48:22;;;;;;;;;;;;;;;-143.57;100.00;51378.53;5057703;28;19928;-72
2022/11/19 10:50:49;;;;;;;;;;;;;;;-143.57;100.00;51408.34;5056605;28;20373;-72
2022/11/19 10:53:22;;;;;;;;;;;;;;;-143.57;100.00;51370.56;5054990;28;20413;-72
2022/11/19 10:55:50;;;;;;;;;;;;;;;-143.57;100.00;51376.53;5055385;28;19939;-72
2022/11/19 10:58:23;;;;;;;;;;;;;;;-143.57;100.00;51350.69;5057394;28;19932;-71
2022/11/19 11:00:52;;;;;;;;;;;;;;;-143.57;100.00;51416.28;5053510;28;20372;-71
2022/11/19 11:03:24;;;;;;;;;;;;;;;-143.57;100.00;51354.66;5053527;28;19929;-71
2022/11/19 11:06:00;;;;;;;;;;;;;;;-143.57;100.00;51366.59;5057692;28;19929;-71
2022/11/19 11:08:26;;;;;;;;;;;;;;;-143.57;100.00;51396.41;5057168;28;19947;-72
2022/11/19 11:10:53;;;;;;;;;;;;;;;-143.57;100.00;51358.66;5056912;28;19986;-71
2022/11/19 11:16:43;;;;;;;;;;;;;;;-143.57;100.00;51346.72;5055202;28;19936;-72
2022/11/19 11:19:15;;;;;;;;;;;;;;;-143.57;100.00;51390.47;5056749;28;19928;-73
2022/11/19 11:21:43;;;;;;;;;;;;;;;-143.57;100.00;51350.69;5055607;28;19986;-72
2022/11/19 11:24:13;;;;;;;;;;;;;;;-143.57;100.00;51340.75;5055672;28;20488;-72
2022/11/19 11:26:40;;;;;;;;;;;;;;;-143.57;100.00;51360.63;5055762;28;19935;-73
2022/11/19 11:29:09;;;;;;;;;;;;;;;-143.57;100.00;51358.66;5057174;28;19931;-73
2022/11/19 11:31:39;;;;;;;;;;;;;;;-143.57;100.00;51360.63;5057475;28;20250;-72
2022/11/19 11:34:12;;;;;;;;;;;;;;;-143.57;100.00;51374.56;5053418;28;19933;-73
2022/11/19 11:36:39;;;;;;;;;;;;;;;-143.57;100.00;51356.66;5042393;28;19972;-73
2022/11/19 11:39:06;;;;;;;;;;;;;;;-143.57;100.00;51362.63;5057195;28;19967;-73
2022/11/19 11:41:40;;;;;;;;;;;;;;;-143.57;62.71;51334.78;5060630;28;19935;-73
2022/11/19 11:44:28;;;;;;;;;;;;;;;-143.57;65.34;51354.66;5051748;28;20411;-73
2022/11/19 11:47:03;;;;;;;;;;;;;;;-143.57;64.97;51326.84;5056108;28;19924;-73
2022/11/19 11:49:33;;;;;;;;;;;;;;;-143.57;66.07;51354.66;5053479;28;19932;-73
2022/11/19 11:52:13;;;;;;;;;;;;;;;-143.57;63.40;51334.78;5056066;28;19974;-73
2022/11/19 11:54:59;;;;;;;;;;;;;;;-143.57;63.91;51350.69;5051893;28;20604;-73
2022/11/19 11:57:28;;;;;;;;;;;;;;;-143.57;62.39;51318.88;5056484;28;19939;-73
2022/11/19 11:59:55;;;;;;;;;;;;;;;-143.57;59.25;51358.66;5059537;28;19924;-73
2022/11/19 12:02:29;;;;;;;;;;;;;;;-143.57;59.73;51334.78;5061502;28;19935;-73
2022/11/19 12:04:58;;;;;;;;;;;;;;;-143.57;60.97;51354.66;5059569;28;19932;-73
2022/11/19 12:07:34;;;;;;;;;;;;;;;-143.57;59.56;51304.97;5059172;28;19931;-73
2022/11/19 12:10:07;;;;;;;;;;;;;;;-143.57;60.76;51320.88;5062039;28;20006;-73
2022/11/19 12:12:52;;;;;;;;;;;;;;;-143.57;62.48;51318.88;5059938;28;20021;-73
2022/11/19 12:15:25;;;;;;;;;;;;;;;-143.57;64.38;51322.88;5059514;28;19928;-73
2022/11/19 12:17:59;;;;;;;;;;;;;;;-143.57;63.81;51346.72;5057059;28;19978;-73
2022/11/19 12:20:49;;;;;;;;;;;;;;;-143.57;63.87;51338.78;5061869;28;19959;-73
2022/11/19 12:23:30;;;;;;;;;;;;;;;-143.57;63.19;51358.66;5059918;28;20383;-73
2022/11/19 12:26:12;;;;;;;;;;;;;;;-143.57;64.59;51336.78;5058201;28;19932;-73
2022/11/19 12:28:42;;;;;;;;;;;;;;;-143.57;65.75;51334.78;5060872;28;19932;-73
2022/11/19 12:31:17;;;;;;;;;;;;;;;-143.57;65.11;51310.94;5058547;28;20018;-73
2022/11/19 12:34:02;;;;;;;;;;;;;;;-143.57;64.84;51350.69;5060892;28;19972;-73
2022/11/19 12:36:47;;;;;;;;;;;;;;;-143.57;65.67;51334.78;5057254;28;20602;-73
2022/11/19 12:39:29;;;;;;;;;;;;;;;-143.57;66.62;51326.84;5057831;28;19935;-73
2022/11/19 12:41:56;;;;;;;;;;;;;;;-143.57;68.05;51328.81;5060820;28;20017;-73
2022/11/19 12:45:01;;;;;;;;;;;;;;;-143.57;68.01;51320.88;5060661;28;20001;-72
2022/11/19 12:47:37;;;;;;;;;;;;;;;-143.57;67.89;51326.84;4995345;28;19933;-73
2022/11/19 12:50:12;;;;;;;;;;;;;;;-143.57;66.49;51346.72;4999545;28;19925;-73
2022/11/19 12:52:54;;;;;;;;;;;;;;;-143.57;65.25;51330.81;5035981;28;19929;-73
2022/11/19 12:55:25;;;;;;;;;;;;;;;-143.57;66.34;51330.81;5060001;28;19931;-73
2022/11/19 12:58:02;;;;;;;;;;;;;;;-143.57;67.41;51366.59;5060252;28;19924;-72
2022/11/19 13:00:29;;;;;;;;;;;;;;;-143.57;67.19;51346.72;5060705;28;20011;-73
2022/11/19 13:03:11;;;;;;;;;;;;;;;-143.57;68.55;51322.88;5060964;28;20365;-72
2022/11/19 13:05:37;;;;;;;;;;;;;;;-143.57;70.80;51332.81;5058374;28;19986;-72
2022/11/19 13:08:15;;;;;;;;;;;;;;;-143.57;72.21;51332.81;5059034;28;19924;-72
2022/11/19 13:10:46;;;;;;;;;;;;;;;-143.57;72.78;51334.78;5054441;28;19928;-73
2022/11/19 13:13:16;;;;;;;;;;;;;;;-143.57;73.51;51348.72;5061137;28;19928;-72
2022/11/19 13:15:49;;;;;;;;;;;;;;;-143.57;75.04;51342.75;5057193;28;19932;-72
2022/11/19 13:18:18;;;;;;;;;;;;;;;-143.57;77.46;51330.81;5052006;28;19932;-72
2022/11/19 13:20:50;;;;;;;;;;;;;;;-143.57;77.58;51338.78;5068229;28;19952;-72
2022/11/19 13:23:23;;;;;;;;;;;;;;;-143.57;78.76;51362.63;5062444;28;19998;-72
2022/11/19 13:26:10;;;;;;;;;;;;;;;-143.57;80.75;51366.59;5058458;28;19925;-72
2022/11/19 13:28:39;;;;;;;;;;;;;;;-143.57;87.86;51374.56;5059272;28;19993;-71
2022/11/19 13:31:12;;;;;;;;;;;;;;;-143.57;91.76;51348.72;5057391;28;19928;-71